Flight Track Log - Related Links

Times and Time Zones

All times are in EDT time to prevent confusion due to time zone crossing. See the ZS-SXA flight status page for this flight to view local times or setup timezone preferences in your user account.

Time Position Orientation Groundspeed Altitude Reporting Facility
EDT Latitude Longitude Course Direction KTS MPH feet Rate Location/Type
Fri 11:50:52 AM -31.9400 115.9730 333° Northwest 2 2  Level FlightAware ADS-B
Fri 11:51:02 AM -31.9390 115.9730 360° North 2 2 27 Level FlightAware ADS-B
Fri 11:53:00 AM -32.0230 115.7221 248° West  Level Estimated
Fri 11:54:00 AM -32.0655 115.5943 249° West  Level Estimated
Fri 11:54:47 AM -31.9390 115.9740 249° West 2 2  Level FlightAware ADS-B
Fri 11:55:17 AM -31.9380 115.9730 320° Northwest 6 7 43 Level FlightAware ADS-B
Fri 11:55:42 AM -31.9370 115.9720 320° Northwest 8 9 46 Level FlightAware ADS-B
Fri 11:56:12 AM -31.9350 115.9710 337° Northwest 17 20 49 Level FlightAware ADS-B
Fri 11:56:27 AM -31.9340 115.9710 360° North 9 10 54 Level FlightAware ADS-B
Fri 11:56:52 AM -31.9330 115.9710 360° North 3 3 56 Level FlightAware ADS-B
Fri 11:57:02 AM -31.9320 115.9710 360° North 7 8 61 Level FlightAware ADS-B
Fri 11:57:22 AM -31.9310 115.9710 360° North 16 18 63 Level FlightAware ADS-B
Fri 11:57:47 AM -31.9300 115.9720 40° Northeast 5 6 68 Level FlightAware ADS-B
Fri 11:58:12 AM -31.9290 115.9710 320° Northwest 4 5 75 Level FlightAware ADS-B
Fri 11:58:57 AM -31.9290 115.9700 270° West 10 12 84 Level FlightAware ADS-B
Fri 11:59:42 AM -31.9290 115.9680 270° West 4 5 106 Level FlightAware ADS-B
Fri 12:00:37 PM -31.9300 115.9680 180° South 16 18 144 Level FlightAware ADS-B
Fri 12:01:07 PM -31.9390 115.9650 196° South 103 119 257 Level FlightAware ADS-B
Fri 12:01:38 PM -31.9841 115.9532 11° North 4,800 450 Climbing Aus ATC (Calculated)
Fri 12:01:47 PM -31.9640 115.9580 196° South 164 189 300 -10,000 Descending FlightAware ADS-B
Fri 12:02:02 PM -31.9770 115.9540 195° South 152 175 800 2,167 Climbing FlightAware ADS-B
Fri 12:02:23 PM -31.9952 115.9493 195° South 156 180 1,600 1,440 Climbing Aus ATC (RADAR)
Fri 12:02:27 PM -31.9930 115.9500 195° South 153 176 1,400 857 Descending FlightAware ADS-B
Fri 12:03:12 PM -32.0240 115.9370 200° South 161 185 2,300 1,000 Climbing FlightAware ADS-B
Fri 12:03:27 PM -32.0280 115.9171 200° South 171 197 2,400 400 Climbing Aus ATC (RADAR)
Fri 12:03:27 PM -32.0280 115.9230 200° South 187 215 2,400  Level FlightAware ADS-B
Fri 12:03:37 PM -32.0260 115.9100 280° West 200 230 2,400 600 Level FlightAware ADS-B
Fri 12:04:07 PM -32.0200 115.8780 282° West 221 254 2,800 1,080 Climbing FlightAware ADS-B
Fri 12:04:27 PM -32.0158 115.8464 282° West 226 260 3,300 1,200 Climbing Aus ATC (RADAR)
Fri 12:04:27 PM -32.0160 115.8500 282° West 242 278 3,200 1,200 Descending FlightAware ADS-B
Fri 12:05:02 PM -32.0100 115.8040 279° West 263 303 4,000 1,938 Climbing FlightAware ADS-B
Fri 12:05:32 PM -32.0041 115.7539 279° West 264 304 5,300 2,000 Climbing Aus ATC (RADAR)
Fri 12:05:32 PM -32.0050 115.7630 279° West 268 308 5,000 2,000 Descending FlightAware ADS-B
Fri 12:06:02 PM -32.0000 115.7200 278° West 262 302 6,300 2,667 Climbing FlightAware ADS-B
Fri 12:06:17 PM -31.9970 115.6950 278° West 261 300 7,000 2,000 Climbing FlightAware ADS-B
Fri 12:06:32 PM -32.0015 115.6691 278° West 258 297 7,300 1,440 Climbing Aus ATC (RADAR)
Fri 12:06:42 PM -32.0070 115.6590 278° West 273 314 7,600 2,160 Climbing FlightAware ADS-B
Fri 12:06:57 PM -32.0150 115.6370 247° West 275 316 8,200 1,800 Climbing FlightAware ADS-B
Fri 12:07:22 PM -32.0270 115.6020 248° West 282 325 8,800 1,855 Climbing FlightAware ADS-B
Fri 12:07:52 PM -32.0410 115.5590 249° West 281 323 9,900 1,543 Climbing FlightAware ADS-B
Fri 12:08:32 PM -32.0610 115.5010 248° West 304 350 10,600 847 Climbing FlightAware ADS-B
Fri 12:09:17 PM -32.0860 115.4250 249° West 341 392 11,100 938 Climbing FlightAware ADS-B
Fri 12:09:36 PM -32.0982 115.3890 249° West 336 387 11,600 1,500 Climbing Aus ATC (RADAR)
Fri 12:09:57 PM -32.1090 115.3550 249° West 354 407 12,100 2,000 Climbing FlightAware ADS-B
Fri 12:10:36 PM -32.1336 115.2813 249° West 348 400 13,600 2,000 Climbing Aus ATC (RADAR)
Fri 12:10:42 PM -32.1360 115.2750 249° West 350 403 13,600 1,435 Level FlightAware ADS-B
Fri 12:11:22 PM -32.1600 115.2030 248° West 358 412 14,700 1,650 Climbing FlightAware ADS-B
Fri 12:12:02 PM -32.1830 115.1300 250° West 364 419 15,800 1,747 Climbing FlightAware ADS-B
Fri 12:12:41 PM -32.2092 115.0521 250° West 363 418 17,000 1,600 Climbing Aus ATC (RADAR)
Fri 12:12:47 PM -32.2120 115.0440 250° West 372 428 17,000 1,565 Level FlightAware ADS-B
Fri 12:13:27 PM -32.2360 114.9700 249° West 375 432 18,200 1,650 Climbing FlightAware ADS-B
Fri 12:14:07 PM -32.2610 114.8940 249° West 381 438 19,200 1,541 Climbing FlightAware ADS-B
Fri 12:14:41 PM -32.2849 114.8214 249° West 378 435 20,100 1,333 Climbing Aus ATC (RADAR)
Fri 12:14:52 PM -32.2910 114.8020 249° West 389 448 20,200 1,294 Climbing FlightAware ADS-B
Fri 12:15:32 PM -32.3160 114.7260 249° West 394 453 21,200 1,553 Climbing FlightAware ADS-B
Fri 12:16:17 PM -32.3450 114.6340 250° West 395 455 22,400 1,482 Climbing FlightAware ADS-B
Fri 12:16:57 PM -32.3710 114.5540 249° West 396 456 23,300 1,271 Climbing FlightAware ADS-B
Fri 12:17:42 PM -32.4020 114.4590 249° West 401 461 24,200 1,308 Climbing FlightAware ADS-B
Fri 12:18:15 PM -32.4255 114.3874 249° West 393 452 25,000 1,200 Climbing Aus ATC (RADAR)
Fri 12:18:22 PM -32.4280 114.3770 249° West 400 460 25,000 1,149 Level FlightAware ADS-B
Fri 12:19:02 PM -32.4540 114.2960 249° West 400 460 25,900 1,233 Climbing FlightAware ADS-B
Fri 12:19:35 PM -32.4777 114.2232 249° West 393 452 26,500 800 Climbing Aus ATC (RADAR)
Fri 12:19:47 PM -32.4840 114.2040 249° West 406 467 26,500 1,038 Level FlightAware ADS-B
Fri 12:20:27 PM -32.5100 114.1210 250° West 402 463 27,400 1,350 Climbing FlightAware ADS-B
Fri 12:21:07 PM -32.5360 114.0390 249° West 397 457 28,300 1,562 Climbing FlightAware ADS-B
Fri 12:21:40 PM -32.5594 113.9675 249° West 385 443 29,300 1,467 Climbing Aus ATC (RADAR)
Fri 12:21:52 PM -32.5650 113.9490 249° West 390 449 29,400 808 Climbing FlightAware ADS-B
Fri 12:22:32 PM -32.5900 113.8690 250° West 390 449 30,000 424 Climbing FlightAware ADS-B
Fri 12:23:17 PM -32.6190 113.7760 250° West 402 463 30,000 82 Level FlightAware ADS-B
Fri 12:23:45 PM -32.6384 113.7142 250° West 387 445 30,100  Climbing Aus ATC (RADAR)
Fri 12:23:57 PM -32.6460 113.6930 250° West 400 460 30,000 -105 Descending FlightAware ADS-B
Fri 12:24:42 PM -32.6740 113.6030 250° West 399 459 30,000  Level FlightAware ADS-B
Fri 12:25:22 PM -32.7000 113.5190 250° West 400 460 30,000 88 Level FlightAware ADS-B
Fri 12:25:50 PM -32.7205 113.4579 250° West 389 448 30,100  Climbing Aus ATC (RADAR)
Fri 12:26:02 PM -32.7250 113.4370 250° West 401 461 30,000  Descending FlightAware ADS-B
Fri 12:26:47 PM -32.7540 113.3470 249° West 403 464 30,100 141 Climbing FlightAware ADS-B
Fri 12:27:27 PM -32.7810 113.2600 250° West 401 461 30,200 265 Climbing FlightAware ADS-B
Fri 12:27:55 PM -32.7994 113.1998 250° West 387 445 30,400 150 Climbing Aus ATC (RADAR)
Fri 12:28:07 PM -32.8040 113.1850 250° West 397 457 30,300 105 Descending FlightAware ADS-B
Fri 12:28:52 PM -32.8300 113.0990 250° West 395 455 30,500 141 Climbing FlightAware ADS-B
Fri 12:29:32 PM -32.8550 113.0200 249° West 396 456 30,500 90 Level FlightAware ADS-B
Fri 12:29:59 PM -32.8774 112.9431 249° West 384 442 30,600  Climbing Aus ATC (RADAR)
Fri 12:30:17 PM -32.8840 112.9230 249° West 396 456 30,500 -103 Descending FlightAware ADS-B
Fri 12:30:57 PM -32.9110 112.8360 250° West 395 455 30,500  Level FlightAware ADS-B
Fri 12:31:52 PM -32.9420 112.7350 250° West 395 455 30,500 65 Level FlightAware ADS-B
Fri 12:32:29 PM -32.9734 112.6355 250° West 383 441 30,600  Climbing Aus ATC (RADAR)
Fri 12:32:37 PM -32.9750 112.6250 250° West 397 457 30,500 -125 Descending FlightAware ADS-B
Fri 12:33:17 PM -33.0010 112.5400 250° West 396 456 30,500  Level FlightAware ADS-B
Fri 12:34:02 PM -33.0250 112.4590 251° West 395 455 30,500  Level FlightAware ADS-B
Fri 12:34:42 PM -33.0530 112.3680 250° West 395 455 30,500  Level FlightAware ADS-B
Fri 12:35:22 PM -33.0770 112.2860 251° West 395 455 30,500  Level FlightAware ADS-B
Fri 12:36:07 PM -33.1040 112.1960 250° West 392 451 30,500 83 Level FlightAware ADS-B
Fri 12:36:34 PM -33.1221 112.1351 250° West 377 434 30,600  Climbing Aus ATC (RADAR)
Fri 12:36:47 PM -33.1290 112.1150 250° West 392 451 30,500 -113 Descending FlightAware ADS-B
Fri 12:37:27 PM -33.1530 112.0330 251° West 393 452 30,500  Level FlightAware ADS-B
Fri 12:37:59 PM -33.1753 111.9623 251° West 378 435 30,500  Level Aus ATC (RADAR)
Fri 12:38:12 PM -33.1800 111.9400 251° West 394 453 30,500  Level FlightAware ADS-B
Fri 12:38:38 PM -33.1989 111.8798 251° West 379 436 30,500  Level Aus ATC (RADAR)
Fri 12:38:52 PM -33.2050 111.8590 251° West 395 455 30,500  Level FlightAware ADS-B
Fri 12:39:37 PM -33.2320 111.7660 251° West 395 455 30,500  Level FlightAware ADS-B
Fri 12:40:17 PM -33.2540 111.6900 251° West 394 453 30,500  Level FlightAware ADS-B
Fri 12:41:02 PM -33.2800 111.6040 251° West 394 453 30,500  Level FlightAware ADS-B
Fri 12:41:03 PM -33.2851 111.5824 251° West 377 434 30,500  Level Aus ATC (RADAR)
Fri 12:41:42 PM -33.3020 111.5350 249° West 394 453 30,500  Level FlightAware ADS-B
Fri 12:42:22 PM -33.3230 111.4650 250° West 394 453 30,500  Level FlightAware ADS-B
Fri 12:42:43 PM -33.3496 111.3805 250° West 378 435 30,500  Level Aus ATC (RADAR)
Fri 12:43:02 PM -33.3440 111.3950 250° West 394 453 30,500  Level FlightAware ADS-B
Fri 12:43:52 PM -33.3700 111.3080 250° West 394 453 30,500  Level FlightAware ADS-B
Fri 12:44:32 PM -33.3920 111.2380 249° West 394 453 30,500  Level FlightAware ADS-B
Fri 12:45:12 PM -33.4130 111.1690 250° West 394 453 30,500  Level FlightAware ADS-B
Fri 12:45:52 PM -33.4340 111.0990 250° West 394 453 30,500  Level FlightAware ADS-B
Fri 12:46:14 PM -33.4885 110.8972 73° East 30,000  Descending Aus ATC (Calculated)
Fri 12:46:32 PM -33.4550 111.0290 250° West 394 453 30,500 517 Climbing FlightAware ADS-B
Fri 12:47:12 PM -33.4760 110.9590 250° West 394 453 30,500  Level FlightAware ADS-B
Fri 12:47:52 PM -33.4980 110.8890 249° West 394 453 30,500  Level FlightAware ADS-B
Fri 12:48:42 PM -33.5240 110.8020 250° West 394 453 30,500  Level FlightAware ADS-B
Fri 12:49:22 PM -33.5450 110.7320 250° West 394 453 30,500  Level FlightAware ADS-B
Fri 12:50:02 PM -33.5660 110.6620 250° West 394 453 30,500 15 Level FlightAware ADS-B
Fri 12:51:58 PM -33.6927 110.1717 252° West 30,000 15 Descending Aus ATC (Calculated)
Fri 12:51:58 PM -33.6927 110.1717 252° West 30,000 16 Level Aus ATC (Calculated)
Fri 12:53:00 PM -33.7300 110.0373 252° West  Level Estimated
Fri 12:54:00 PM -33.7658 109.9071 252° West  Level Estimated
Fri 12:55:00 PM -33.8016 109.7769 252° West  Level Estimated
Fri 12:56:00 PM -33.8372 109.6465 252° West  Level Estimated
Fri 12:57:00 PM -33.8727 109.5160 252° West  Level Estimated
Fri 12:58:00 PM -33.9080 109.3854 252° West  Level Estimated
Fri 12:59:00 PM -33.9432 109.2547 252° West  Level Estimated
Fri 01:00:00 PM -33.9782 109.1239 252° West  Level Estimated
Fri 01:01:00 PM -34.0132 108.9930 252° West  Level Estimated
Fri 01:02:00 PM -34.0479 108.8620 252° West  Level Estimated
Fri 01:03:00 PM -34.0826 108.7309 252° West  Level Estimated
Fri 01:04:00 PM -34.1171 108.5997 252° West  Level Estimated
Fri 01:05:00 PM -34.1514 108.4683 252° West  Level Estimated
Fri 01:06:00 PM -34.1856 108.3369 252° West  Level Estimated
Fri 01:07:00 PM -34.2197 108.2053 253° West  Level Estimated
Fri 01:08:00 PM -34.2537 108.0737 253° West  Level Estimated
Fri 01:09:00 PM -34.2874 107.9419 253° West  Level Estimated
Fri 01:10:00 PM -34.3211 107.8100 253° West  Level Estimated
Fri 01:11:00 PM -34.3546 107.6780 253° West  Level Estimated
Fri 01:12:00 PM -34.3880 107.5460 253° West  Level Estimated
Fri 01:13:00 PM -34.4212 107.4138 253° West  Level Estimated
Fri 01:14:00 PM -34.4543 107.2815 253° West  Level Estimated
Fri 01:15:00 PM -34.4873 107.1491 253° West  Level Estimated
Fri 01:16:00 PM -34.5201 107.0166 253° West  Level Estimated
Fri 01:16:06 PM -34.5153 107.0392 254° West 30,000  Level Aus ATC (Calculated)
Fri 01:18:00 PM -34.5773 106.7872 253° West  Level Estimated
Fri 01:19:00 PM -34.6097 106.6544 253° West  Level Estimated
Fri 01:20:00 PM -34.6420 106.5215 254° West  Level Estimated
Fri 01:21:00 PM -34.6741 106.3885 254° West  Level Estimated
Fri 01:22:00 PM -34.7061 106.2554 254° West  Level Estimated
Fri 01:23:00 PM -34.7379 106.1222 254° West  Level Estimated
Fri 01:24:00 PM -34.7696 105.9889 254° West  Level Estimated
Fri 01:25:00 PM -34.8012 105.8555 254° West  Level Estimated
Fri 01:26:00 PM -34.8326 105.7220 254° West  Level Estimated
Fri 01:27:00 PM -34.8638 105.5884 254° West  Level Estimated
Fri 01:27:55 PM -34.8820 105.5120 255° West 30,000  Level Aus ATC (Calculated)
Fri 01:28:00 PM -34.8950 105.4547 254° West  Level Estimated
Fri 01:29:00 PM -34.9156 105.3671 254° West  Level Estimated
Fri 01:30:00 PM -34.9465 105.2332 254° West  Level Estimated
Fri 01:31:00 PM -34.9772 105.0992 254° West  Level Estimated
Fri 01:32:00 PM -35.0078 104.9652 254° West  Level Estimated
Fri 01:32:21 PM -35.0164 104.9167 255° West 34,000  Level Aus ATC (Calculated)
Fri 01:33:00 PM -35.0382 104.8310 254° West  Level Estimated
Fri 01:34:00 PM -35.0664 104.6952 255° West  Level Estimated
Fri 01:35:00 PM -35.0966 104.5608 255° West  Level Estimated
Fri 01:36:00 PM -35.1265 104.4263 255° West  Level Estimated
Fri 01:37:00 PM -35.1564 104.2918 255° West  Level Estimated
Fri 01:38:00 PM -35.1861 104.1571 255° West  Level Estimated
Fri 01:39:00 PM -35.2156 104.0223 255° West  Level Estimated
Fri 01:40:00 PM -35.2450 103.8875 255° West  Level Estimated
Fri 01:41:00 PM -35.2742 103.7525 255° West  Level Estimated
Fri 01:42:00 PM -35.3033 103.6174 255° West  Level Estimated
Fri 01:43:00 PM -35.3322 103.4823 255° West  Level Estimated
Fri 01:44:00 PM -35.3610 103.3470 255° West  Level Estimated
Fri 01:45:00 PM -35.3896 103.2117 255° West  Level Estimated
Fri 01:46:00 PM -35.4181 103.0762 255° West  Level Estimated
Fri 01:46:06 PM -35.4400 102.9338 257° West 34,000  Level Aus ATC (Calculated)
Fri 01:46:06 PM -35.4400 102.9338 257° West 34,000 Level Aus ATC (Calculated)
Fri 01:47:00 PM -35.4463 102.9413 256° West  Level Estimated
Fri 01:48:00 PM -35.4934 102.6760 256° West  Level Estimated
Fri 01:49:00 PM -35.5213 102.5402 256° West  Level Estimated
Fri 01:50:00 PM -35.5491 102.4043 256° West  Level Estimated
Fri 01:51:00 PM -35.5766 102.2683 256° West  Level Estimated
Fri 01:52:00 PM -35.6041 102.1322 256° West  Level Estimated
Fri 01:53:00 PM -35.6314 101.9960 256° West  Level Estimated
Fri 01:54:00 PM -35.6585 101.8597 256° West  Level Estimated
Fri 01:55:00 PM -35.6855 101.7234 256° West  Level Estimated
Fri 01:56:00 PM -35.7123 101.5869 256° West  Level Estimated
Fri 01:57:00 PM -35.7389 101.4504 256° West  Level Estimated
Fri 01:58:00 PM -35.7654 101.3137 257° West  Level Estimated
Fri 01:59:00 PM -35.7918 101.1770 257° West  Level Estimated
Fri 02:00:00 PM -35.8180 101.0402 257° West  Level Estimated
Fri 02:01:00 PM -35.8440 100.9033 257° West  Level Estimated
Fri 02:02:00 PM -35.8699 100.7663 257° West  Level Estimated
Fri 02:03:00 PM -35.8956 100.6292 257° West  Level Estimated
Fri 02:04:00 PM -35.9212 100.4920 256° West  Level Estimated
Fri 02:05:00 PM -35.9466 100.3548 257° West  Level Estimated
Fri 02:06:00 PM -35.9719 100.2174 257° West  Level Estimated
Fri 02:06:27 PM -35.9860 99.9210 258° West 34,000  Level Aus ATC (Calculated)
Fri 02:07:00 PM -35.9970 100.0800 257° West  Level Estimated
Fri 02:08:00 PM -36.0244 99.7077 257° West  Level Estimated
Fri 02:09:00 PM -36.0489 99.5700 258° West  Level Estimated
Fri 02:10:00 PM -36.0733 99.4323 258° West  Level Estimated
Fri 02:11:00 PM -36.0976 99.2944 258° West  Level Estimated
Fri 02:12:00 PM -36.1217 99.1565 258° West  Level Estimated
Fri 02:13:00 PM -36.1456 99.0184 258° West  Level Estimated
Fri 02:14:00 PM -36.1694 98.8803 258° West  Level Estimated
Fri 02:15:00 PM -36.1930 98.7421 258° West  Level Estimated
Fri 02:15:50 PM -35.6796 98.2674 259° West 34,000  Level Aus ATC (Calculated)
Fri 02:16:00 PM -36.2165 98.6039 258° West  Level Estimated
Fri 02:17:00 PM -35.7071 98.1072 258° West  Level Estimated
Fri 02:18:00 PM -35.7305 97.9697 258° West  Level Estimated
Fri 02:19:00 PM -35.7538 97.8322 258° West  Level Estimated
Fri 02:20:00 PM -35.7768 97.6946 258° West  Level Estimated
Fri 02:21:00 PM -35.7998 97.5569 258° West  Level Estimated
Fri 02:22:00 PM -35.8225 97.4192 258° West  Level Estimated
Fri 02:23:00 PM -35.8451 97.2813 259° West  Level Estimated
Fri 02:24:00 PM -35.8676 97.1434 259° West  Level Estimated
Fri 02:25:00 PM -35.8899 97.0054 259° West  Level Estimated
Fri 02:26:00 PM -35.9120 96.8673 259° West  Level Estimated
Fri 02:27:00 PM -35.9340 96.7292 259° West  Level Estimated
Fri 02:28:00 PM -35.9558 96.5910 259° West  Level Estimated
Fri 02:29:00 PM -35.9775 96.4527 259° West  Level Estimated
Fri 02:30:00 PM -35.9990 96.3143 259° West  Level Estimated
Fri 02:31:00 PM -36.0204 96.1758 259° West  Level Estimated
Fri 02:32:00 PM -36.0416 96.0373 259° West  Level Estimated
Fri 02:33:00 PM -36.0626 95.8987 259° West  Level Estimated
Fri 02:33:07 PM -35.0685 95.3088 260° West 34,000  Level Aus ATC (Calculated)
Fri 02:35:00 PM -35.1089 95.0511 259° West  Level Estimated
Fri 02:35:20 PM -34.9860 94.9210 260° West 34,000  Level Aus ATC (Calculated)
Fri 02:37:00 PM -35.0213 94.6930 259° West  Level Estimated
Fri 02:38:00 PM -35.0424 94.5562 259° West  Level Estimated
Fri 02:39:00 PM -35.0632 94.4193 259° West  Level Estimated
Fri 02:40:00 PM -35.0839 94.2823 259° West  Level Estimated
Fri 02:41:00 PM -35.1045 94.1452 260° West  Level Estimated
Fri 02:42:00 PM -35.1249 94.0081 260° West  Level Estimated
Fri 02:43:00 PM -35.1451 93.8709 260° West  Level Estimated
Fri 02:44:00 PM -35.1652 93.7336 260° West  Level Estimated
Fri 02:45:00 PM -35.1852 93.5963 260° West  Level Estimated
Fri 02:45:42 PM -34.6490 93.1111 260° West 34,000  Level Aus ATC (Calculated)
Fri 02:45:42 PM -34.6490 93.1111 260° West 34,000 10 Level Aus ATC (Calculated)
Fri 02:47:00 PM -34.6750 92.9337 260° West  Level Estimated
Fri 02:48:00 PM -34.6948 92.7972 260° West  Level Estimated
Fri 02:49:00 PM -34.7145 92.6606 260° West  Level Estimated
Fri 02:50:00 PM -34.7340 92.5239 260° West  Level Estimated
Fri 02:51:00 PM -34.7534 92.3872 260° West  Level Estimated
Fri 02:52:00 PM -34.7726 92.2504 260° West  Level Estimated
Fri 02:53:00 PM -34.7917 92.1135 260° West  Level Estimated
Fri 02:54:00 PM -34.8106 91.9766 260° West  Level Estimated
Fri 02:55:00 PM -34.8294 91.8396 260° West  Level Estimated
Fri 02:56:00 PM -34.8480 91.7026 261° West  Level Estimated
Fri 02:57:00 PM -34.8665 91.5654 261° West  Level Estimated
Fri 02:58:00 PM -34.8848 91.4283 261° West  Level Estimated
Fri 02:59:00 PM -34.9029 91.2910 261° West  Level Estimated
Fri 03:00:00 PM -34.9209 91.1537 261° West  Level Estimated
Fri 03:01:00 PM -34.9388 91.0164 261° West  Level Estimated
Fri 03:02:00 PM -34.9565 90.8790 261° West  Level Estimated
Fri 03:03:00 PM -34.9740 90.7415 260° West  Level Estimated
Fri 03:04:00 PM -34.9914 90.6039 261° West  Level Estimated
Fri 03:04:03 PM -33.9718 89.8421 261° West 34,000  Level Aus ATC (Calculated)
Fri 03:04:03 PM -33.9718 89.8421 261° West 34,000 11 Level Aus ATC (Calculated)
Fri 03:06:00 PM -34.0067 89.5773 261° West  Level Estimated
Fri 03:07:00 PM -34.0244 89.4414 261° West  Level Estimated
Fri 03:08:00 PM -34.0420 89.3055 261° West  Level Estimated
Fri 03:09:00 PM -34.0594 89.1695 261° West  Level Estimated
Fri 03:10:00 PM -34.0766 89.0334 261° West  Level Estimated
Fri 03:11:00 PM -34.0938 88.8973 261° West  Level Estimated
Fri 03:12:00 PM -34.1107 88.7611 261° West  Level Estimated
Fri 03:13:00 PM -34.1275 88.6249 261° West  Level Estimated
Fri 03:14:00 PM -34.1441 88.4887 262° West  Level Estimated
Fri 03:15:00 PM -34.1606 88.3523 262° West  Level Estimated
Fri 03:15:34 PM -33.5873 87.7984 262° West 34,000  Level Aus ATC (Calculated)
Fri 03:17:00 PM -33.6112 87.6044 262° West  Level Estimated
Fri 03:18:00 PM -33.6277 87.4689 262° West  Level Estimated
Fri 03:19:00 PM -33.6441 87.3334 262° West  Level Estimated
Fri 03:20:00 PM -33.6603 87.1978 262° West  Level Estimated
Fri 03:21:00 PM -33.6764 87.0622 262° West  Level Estimated
Fri 03:22:00 PM -33.6923 86.9265 262° West  Level Estimated
Fri 03:23:00 PM -33.7081 86.7907 262° West  Level Estimated
Fri 03:24:00 PM -33.7238 86.6550 262° West  Level Estimated
Fri 03:25:00 PM -33.7392 86.5191 262° West  Level Estimated
Fri 03:26:00 PM -33.7546 86.3833 262° West  Level Estimated
Fri 03:27:00 PM -33.7697 86.2474 262° West  Level Estimated
Fri 03:28:00 PM -33.7848 86.1114 262° West  Level Estimated
Fri 03:29:00 PM -33.7997 85.9754 262° West  Level Estimated
Fri 03:30:00 PM -33.8144 85.8393 263° West  Level Estimated
Fri 03:31:00 PM -33.8290 85.7032 263° West  Level Estimated
Fri 03:32:00 PM -33.8434 85.5670 263° West  Level Estimated
Fri 03:33:00 PM -33.8577 85.4308 263° West  Level Estimated
Fri 03:33:21 PM -33.0045 84.7657 262° West 34,000  Level Aus ATC (Calculated)
Fri 03:34:00 PM -33.8719 85.2946 263° West  Level Estimated
Fri 03:35:00 PM -33.0291 84.5433 262° West  Level Estimated
Fri 03:35:45 PM -33.0109 84.3752 263° West 34,000  Level Aus ATC (Calculated)
Fri 03:36:00 PM -33.0438 84.4084 263° West  Level Estimated
Fri 03:37:00 PM -33.0292 84.2066 263° West  Level Estimated
Fri 03:38:00 PM -33.0436 84.0717 263° West  Level Estimated
Fri 03:38:16 PM -33.0170 83.9064 263° West 34,000  Level Aus ATC (Calculated)
Fri 03:39:21 PM -33.0187 83.7502 263° West 34,000 12 Level Aus ATC (Calculated)
Fri 03:40:17 PM -33.0202 83.5939 263° West 34,000 12 Level Aus ATC (Calculated)
Fri 03:41:17 PM -33.0220 83.3595 263° West 34,000 12 Level Aus ATC (Calculated)
Fri 03:43:00 PM -33.0454 83.1277 263° West  Level Estimated
Fri 03:44:00 PM -33.0588 82.9927 263° West  Level Estimated
Fri 03:45:00 PM -33.0721 82.8575 263° West  Level Estimated
Fri 03:45:26 PM -33.0248 82.6563 263° West 34,000  Level Aus ATC (Calculated)
Fri 03:47:00 PM -33.0452 82.4446 263° West  Level Estimated
Fri 03:48:00 PM -33.0580 82.3094 264° West  Level Estimated
Fri 03:49:00 PM -33.0707 82.1742 264° West  Level Estimated
Fri 03:50:00 PM -33.0833 82.0390 264° West  Level Estimated
Fri 03:51:00 PM -33.0957 81.9037 264° West  Level Estimated
Fri 03:52:00 PM -33.1079 81.7684 264° West  Level Estimated
Fri 03:53:00 PM -33.1200 81.6330 264° West  Level Estimated
Fri 03:54:00 PM -33.1320 81.4977 264° West  Level Estimated
Fri 03:55:00 PM -33.1438 81.3622 264° West  Level Estimated
Fri 03:56:00 PM -33.1554 81.2268 264° West  Level Estimated
Fri 03:57:00 PM -33.1669 81.0912 264° West  Level Estimated
Fri 03:58:00 PM -33.1783 80.9557 264° West  Level Estimated
Fri 03:59:00 PM -33.1895 80.8201 264° West  Level Estimated
Fri 04:00:00 PM -33.2006 80.6845 264° West  Level Estimated
Fri 04:01:00 PM -33.2115 80.5489 264° West  Level Estimated
Fri 04:02:00 PM -33.2223 80.4132 265° West  Level Estimated
Fri 04:02:58 PM -33.0058 79.6876 265° West 36,000  Level Aus ATC (Calculated)
Fri 04:03:00 PM -33.2329 80.2775 265° West  Level Estimated
Fri 04:04:00 PM -33.0166 79.5477 265° West  Level Estimated
Fri 04:05:00 PM -33.0268 79.4122 265° West  Level Estimated
Fri 04:06:00 PM -33.0369 79.2768 265° West  Level Estimated
Fri 04:07:00 PM -33.0468 79.1413 265° West  Level Estimated
Fri 04:08:00 PM -33.0566 79.0058 265° West  Level Estimated
Fri 04:09:00 PM -33.0663 78.8702 265° West  Level Estimated
Fri 04:10:00 PM -33.0758 78.7346 265° West  Level Estimated
Fri 04:11:00 PM -33.0851 78.5990 265° West  Level Estimated
Fri 04:12:00 PM -33.0943 78.4634 265° West  Level Estimated
Fri 04:13:00 PM -33.1034 78.3277 265° West  Level Estimated
Fri 04:14:00 PM -33.1123 78.1920 265° West  Level Estimated
Fri 04:15:00 PM -33.1211 78.0563 266° West  Level Estimated
Fri 04:15:41 PM -33.0248 77.6563 266° West 36,000  Level Aus ATC (Calculated)
Fri 04:16:00 PM -33.1297 77.9205 266° West  Level Estimated
Fri 04:17:00 PM -33.0359 77.4777 266° West  Level Estimated
Fri 04:18:00 PM -33.0442 77.3421 266° West  Level Estimated
Fri 04:18:13 PM -33.0245 77.1874 266° West 36,000  Level Aus ATC (Calculated)
Fri 04:19:00 PM -33.0523 77.2064 266° West  Level Estimated
Fri 04:20:00 PM -33.0387 76.9455 266° West  Level Estimated
Fri 04:21:00 PM -33.0464 76.8098 266° West  Level Estimated
Fri 04:22:00 PM -33.0540 76.6741 266° West  Level Estimated
Fri 04:23:00 PM -33.0614 76.5383 266° West  Level Estimated
Fri 04:24:00 PM -33.0687 76.4026 266° West  Level Estimated
Fri 04:25:00 PM -33.0759 76.2668 266° West  Level Estimated
Fri 04:25:06 PM -33.0170 76.0936 266° West 36,000  Level Aus ATC (Calculated)
Fri 04:27:00 PM -33.0301 75.8357 266° West  Level Estimated
Fri 04:28:00 PM -33.0368 75.6999 267° West  Level Estimated
Fri 04:28:13 PM -33.0109 75.6248 266° West 36,000  Level Aus ATC (Calculated)
Fri 04:29:00 PM -33.0433 75.5641 267° West  Level Estimated
Fri 04:30:00 PM -33.0224 75.3828 267° West  Level Estimated
Fri 04:31:00 PM -33.0287 75.2470 267° West  Level Estimated
Fri 04:32:00 PM -33.0348 75.1112 267° West  Level Estimated
Fri 04:33:00 PM -33.0407 74.9753 267° West  Level Estimated
Fri 04:33:13 PM -33.0045 74.7657 267° West 36,000  Level Aus ATC (Calculated)
Fri 04:35:00 PM -33.0145 74.5235 267° West  Level Estimated
Fri 04:36:00 PM -33.0199 74.3877 267° West  Level Estimated
Fri 04:37:00 PM -33.0252 74.2519 267° West  Level Estimated
Fri 04:38:00 PM -33.0303 74.1160 267° West  Level Estimated
Fri 04:39:00 PM -33.0353 73.9801 267° West  Level Estimated
Fri 04:40:00 PM -33.0402 73.8443 268° West  Level Estimated
Fri 04:41:00 PM -33.0449 73.7084 268° West  Level Estimated
Fri 04:42:00 PM -33.0494 73.5725 268° West  Level Estimated
Fri 04:43:00 PM -33.0538 73.4365 268° West  Level Estimated
Fri 04:44:00 PM -33.0581 73.3006 268° West  Level Estimated
Fri 04:45:00 PM -33.0622 73.1646 268° West  Level Estimated
Fri 04:46:00 PM -33.0661 73.0287 268° West  Level Estimated
Fri 04:47:00 PM -33.0699 72.8927 268° West  Level Estimated
Fri 04:48:00 PM -33.0736 72.7567 268° West  Level Estimated
Fri 04:49:00 PM -33.0771 72.6207 268° West  Level Estimated
Fri 04:50:00 PM -33.0805 72.4847 268° West  Level Estimated
Fri 04:51:00 PM -33.0837 72.3487 268° West  Level Estimated
Fri 04:52:00 PM -33.0868 72.2126 268° West  Level Estimated
Fri 04:53:00 PM -33.0897 72.0766 268° West  Level Estimated
Fri 04:54:00 PM -33.0925 71.9406 269° West  Level Estimated
Fri 04:55:00 PM -33.0951 71.8045 269° West  Level Estimated
Fri 04:56:00 PM -33.0976 71.6684 269° West  Level Estimated
Fri 04:57:00 PM -33.0999 71.5324 269° West  Level Estimated
Fri 04:58:00 PM -33.1021 71.3963 269° West  Level Estimated
Fri 04:59:00 PM -33.1041 71.2602 269° West  Level Estimated
Fri 05:00:00 PM -33.1060 71.1241 269° West  Level Estimated
Fri 05:01:00 PM -33.1077 70.9880 269° West  Level Estimated
Fri 05:02:00 PM -33.1093 70.8519 269° West  Level Estimated
Fri 05:03:00 PM -33.1108 70.7158 269° West  Level Estimated
Fri 05:04:00 PM -33.1121 70.5797 269° West  Level Estimated
Fri 05:05:00 PM -33.1132 70.4436 269° West  Level Estimated
Fri 05:06:00 PM -33.1142 70.3074 269° West  Level Estimated
Fri 05:07:00 PM -33.1151 70.1713 270° West  Level Estimated
Fri 05:08:00 PM -33.1158 70.0352 270° West  Level Estimated
Fri 05:09:00 PM -33.1163 69.8991 270° West  Level Estimated
Fri 05:10:00 PM -33.1167 69.7629 270° West  Level Estimated
Fri 05:11:00 PM -33.1170 69.6268 270° West  Level Estimated
Fri 05:12:00 PM -33.1171 69.4907 270° West  Level Estimated
Fri 05:13:00 PM -33.1171 69.3546 270° West  Level Estimated
Fri 05:14:00 PM -33.1169 69.2184 270° West  Level Estimated
Fri 05:15:00 PM -33.1166 69.0823 270° West  Level Estimated
Fri 05:16:00 PM -33.1161 68.9462 270° West  Level Estimated
Fri 05:17:00 PM -33.1155 68.8101 270° West  Level Estimated
Fri 05:18:00 PM -33.1147 68.6739 270° West  Level Estimated
Fri 05:19:00 PM -33.1138 68.5378 270° West  Level Estimated
Fri 05:20:00 PM -33.1127 68.4017 271° West  Level Estimated
Fri 05:21:00 PM -33.1115 68.2656 271° West  Level Estimated
Fri 05:22:00 PM -33.1101 68.1295 271° West  Level Estimated
Fri 05:23:00 PM -33.1086 67.9934 271° West  Level Estimated
Fri 05:24:00 PM -33.1069 67.8573 271° West  Level Estimated
Fri 05:25:00 PM -33.1051 67.7212 271° West  Level Estimated
Fri 05:26:00 PM -33.1031 67.5851 271° West  Level Estimated
Fri 05:27:00 PM -33.1010 67.4490 271° West  Level Estimated
Fri 05:28:00 PM -33.0988 67.3129 271° West  Level Estimated
Fri 05:29:00 PM -33.0964 67.1769 271° West  Level Estimated
Fri 05:30:00 PM -33.0938 67.0408 271° West  Level Estimated
Fri 05:31:00 PM -33.0911 66.9047 271° West  Level Estimated
Fri 05:32:00 PM -33.0883 66.7687 271° West  Level Estimated
Fri 05:33:00 PM -33.0853 66.6327 271° West  Level Estimated
Fri 05:34:00 PM -33.0822 66.4967 272° West  Level Estimated
Fri 05:35:00 PM -33.0789 66.3606 272° West  Level Estimated
Fri 05:36:00 PM -33.0754 66.2246 272° West  Level Estimated
Fri 05:37:00 PM -33.0718 66.0886 272° West  Level Estimated
Fri 05:38:00 PM -33.0681 65.9527 272° West  Level Estimated
Fri 05:39:00 PM -33.0642 65.8167 272° West  Level Estimated
Fri 05:40:00 PM -33.0602 65.6807 272° West  Level Estimated
Fri 05:41:00 PM -33.0560 65.5448 272° West  Level Estimated
Fri 05:42:00 PM -33.0517 65.4088 272° West  Level Estimated
Fri 05:43:00 PM -33.0472 65.2729 272° West  Level Estimated
Fri 05:44:00 PM -33.0426 65.1370 272° West  Level Estimated
Fri 05:45:00 PM -33.0379 65.0011 272° West  Level Estimated
Fri 05:46:00 PM -33.0330 64.8652 272° West  Level Estimated
Fri 05:47:00 PM -33.0279 64.7294 273° West  Level Estimated
Fri 05:48:00 PM -33.0227 64.5935 273° West  Level Estimated
Fri 05:49:00 PM -33.0173 64.4577 273° West  Level Estimated
Fri 05:50:00 PM -33.0118 64.3219 273° West  Level Estimated
Fri 05:51:00 PM -33.0062 64.1861 273° West  Level Estimated
Fri 05:52:00 PM -33.0004 64.0503 273° West  Level Estimated
Fri 05:53:00 PM -32.9945 63.9146 273° West  Level Estimated
Fri 05:54:00 PM -32.9884 63.7788 273° West  Level Estimated
Fri 05:55:00 PM -32.9821 63.6431 273° West  Level Estimated
Fri 05:56:00 PM -32.9757 63.5074 273° West  Level Estimated
Fri 05:57:00 PM -32.9692 63.3717 273° West  Level Estimated
Fri 05:58:00 PM -32.9625 63.2361 273° West  Level Estimated
Fri 05:59:00 PM -32.9557 63.1004 273° West  Level Estimated
Fri 06:00:00 PM -32.9487 62.9648 273° West  Level Estimated
Fri 06:01:00 PM -32.9416 62.8292 274° West  Level Estimated
Fri 06:02:00 PM -32.9344 62.6936 274° West  Level Estimated
Fri 06:03:00 PM -32.9270 62.5581 274° West  Level Estimated
Fri 06:04:00 PM -32.9194 62.4225 274° West  Level Estimated
Fri 06:05:00 PM -32.9117 62.2870 274° West  Level Estimated
Fri 06:06:00 PM -32.9039 62.1516 274° West  Level Estimated
Fri 06:07:00 PM -32.8959 62.0161 274° West  Level Estimated
Fri 06:08:00 PM -32.8877 61.8806 274° West  Level Estimated
Fri 06:09:00 PM -32.8795 61.7452 274° West  Level Estimated
Fri 06:10:00 PM -32.8710 61.6099 274° West  Level Estimated
Fri 06:11:00 PM -32.8624 61.4745 274° West  Level Estimated
Fri 06:12:00 PM -32.8537 61.3392 274° West  Level Estimated
Fri 06:13:00 PM -32.8449 61.2039 274° West  Level Estimated
Fri 06:14:00 PM -32.8358 61.0686 274° West  Level Estimated
Fri 06:15:00 PM -32.8267 60.9333 275° West  Level Estimated
Fri 06:16:00 PM -32.8174 60.7981 275° West  Level Estimated
Fri 06:17:00 PM -32.8079 60.6629 275° West  Level Estimated
Fri 06:18:00 PM -32.7984 60.5278 275° West  Level Estimated
Fri 06:19:00 PM -32.7886 60.3926 275° West  Level Estimated
Fri 06:20:00 PM -32.7787 60.2575 275° West  Level Estimated
Fri 06:21:00 PM -32.7687 60.1224 275° West  Level Estimated
Fri 06:22:00 PM -32.7585 59.9874 275° West  Level Estimated
Fri 06:23:00 PM -32.7482 59.8524 275° West  Level Estimated
Fri 06:24:00 PM -32.7378 59.7174 275° West  Level Estimated
Fri 06:25:00 PM -32.7271 59.5825 275° West  Level Estimated
Fri 06:26:00 PM -32.7164 59.4475 275° West  Level Estimated
Fri 06:27:00 PM -32.7055 59.3126 275° West  Level Estimated
Fri 06:28:00 PM -32.6945 59.1778 276° West  Level Estimated
Fri 06:29:00 PM -32.6833 59.0430 276° West  Level Estimated
Fri 06:30:00 PM -32.6719 58.9082 276° West  Level Estimated
Fri 06:31:00 PM -32.6605 58.7734 276° West  Level Estimated
Fri 06:32:00 PM -32.6488 58.6387 276° West  Level Estimated
Fri 06:33:00 PM -32.6371 58.5040 276° West  Level Estimated
Fri 06:34:00 PM -32.6252 58.3694 276° West  Level Estimated
Fri 06:35:00 PM -32.6131 58.2348 276° West  Level Estimated
Fri 06:36:00 PM -32.6009 58.1002 276° West  Level Estimated
Fri 06:37:00 PM -32.5886 57.9657 276° West  Level Estimated
Fri 06:38:00 PM -32.5761 57.8312 276° West  Level Estimated
Fri 06:39:00 PM -32.5635 57.6967 276° West  Level Estimated
Fri 06:40:00 PM -32.5507 57.5623 276° West  Level Estimated
Fri 06:41:00 PM -32.5378 57.4279 276° West  Level Estimated
Fri 06:42:00 PM -32.5248 57.2936 277° West  Level Estimated
Fri 06:43:00 PM -32.5116 57.1593 277° West  Level Estimated
Fri 06:44:00 PM -32.4982 57.0250 277° West  Level Estimated
Fri 06:45:00 PM -32.4847 56.8908 277° West  Level Estimated
Fri 06:46:00 PM -32.4711 56.7566 277° West  Level Estimated
Fri 06:47:00 PM -32.4574 56.6224 277° West  Level Estimated
Fri 06:48:00 PM -32.4435 56.4883 277° West  Level Estimated
Fri 06:49:00 PM -32.4294 56.3543 277° West  Level Estimated
Fri 06:50:00 PM -32.4152 56.2203 277° West  Level Estimated
Fri 06:51:00 PM -32.4009 56.0863 277° West  Level Estimated
Fri 06:52:00 PM -32.3864 55.9524 277° West  Level Estimated
Fri 06:53:00 PM -32.3718 55.8185 277° West  Level Estimated
Fri 06:54:00 PM -32.3570 55.6846 277° West  Level Estimated
Fri 06:55:00 PM -32.3421 55.5508 277° West  Level Estimated
Fri 06:56:00 PM -32.3271 55.4170 278° West  Level Estimated
Fri 06:57:00 PM -32.3119 55.2833 278° West  Level Estimated
Fri 06:58:00 PM -32.2966 55.1497 278° West  Level Estimated
Fri 06:59:00 PM -32.2811 55.0160 278° West  Level Estimated
Fri 07:00:00 PM -32.2655 54.8825 278° West  Level Estimated
Fri 07:01:00 PM -32.2498 54.7489 278° West  Level Estimated
Fri 07:02:00 PM -32.2339 54.6154 278° West  Level Estimated
Fri 07:03:00 PM -32.2179 54.4820 278° West  Level Estimated
Fri 07:04:00 PM -32.2017 54.3486 278° West  Level Estimated
Fri 07:05:00 PM -32.1854 54.2152 278° West  Level Estimated
Fri 07:06:00 PM -32.1690 54.0820 278° West  Level Estimated
Fri 07:07:00 PM -32.1524 53.9487 278° West  Level Estimated
Fri 07:08:00 PM -32.1357 53.8155 278° West  Level Estimated
Fri 07:09:00 PM -32.1188 53.6824 278° West  Level Estimated
Fri 07:10:00 PM -32.1018 53.5493 279° West  Level Estimated
Fri 07:11:00 PM -32.0847 53.4162 279° West  Level Estimated
Fri 07:12:00 PM -32.0674 53.2832 279° West  Level Estimated
Fri 07:13:00 PM -32.0500 53.1502 279° West  Level Estimated
Fri 07:14:00 PM -32.0324 53.0173 279° West  Level Estimated
Fri 07:15:00 PM -32.0147 52.8845 279° West  Level Estimated
Fri 07:16:00 PM -31.9969 52.7517 279° West  Level Estimated
Fri 07:17:00 PM -31.9789 52.6189 279° West  Level Estimated
Fri 07:18:00 PM -31.9608 52.4863 279° West  Level Estimated
Fri 07:19:00 PM -31.9426 52.3536 279° West  Level Estimated
Fri 07:20:00 PM -31.9242 52.2210 279° West  Level Estimated
Fri 07:21:00 PM -31.9056 52.0885 279° West  Level Estimated
Fri 07:22:00 PM -31.8870 51.9560 279° West  Level Estimated
Fri 07:23:00 PM -31.8682 51.8236 279° West  Level Estimated
Fri 07:24:00 PM -31.8493 51.6912 280° West  Level Estimated
Fri 07:25:00 PM -31.8302 51.5589 280° West  Level Estimated
Fri 07:26:00 PM -31.8110 51.4266 280° West  Level Estimated
Fri 07:27:00 PM -31.7916 51.2944 280° West  Level Estimated
Fri 07:28:00 PM -31.7721 51.1623 280° West  Level Estimated
Fri 07:29:00 PM -31.7525 51.0302 280° West  Level Estimated
Fri 07:30:00 PM -31.7328 50.8981 280° West  Level Estimated
Fri 07:31:00 PM -31.7129 50.7662 280° West  Level Estimated
Fri 07:32:00 PM -31.6928 50.6342 280° West  Level Estimated
Fri 07:33:00 PM -31.6727 50.5023 280° West  Level Estimated
Fri 07:34:00 PM -31.6524 50.3705 280° West  Level Estimated
Fri 07:35:00 PM -31.6319 50.2388 280° West  Level Estimated
Fri 07:36:00 PM -31.6114 50.1071 280° West  Level Estimated
Fri 07:37:00 PM -31.5907 49.9754 280° West  Level Estimated
Fri 07:38:00 PM -31.5698 49.8439 280° West  Level Estimated
Fri 07:39:00 PM -31.5488 49.7123 281° West  Level Estimated
Fri 07:40:00 PM -31.5277 49.5809 281° West  Level Estimated
Fri 07:41:00 PM -31.5065 49.4495 281° West  Level Estimated
Fri 07:42:00 PM -31.4851 49.3181 281° West  Level Estimated
Fri 07:43:00 PM -31.4636 49.1869 281° West  Level Estimated
Fri 07:44:00 PM -31.4419 49.0556 281° West  Level Estimated
Fri 07:45:00 PM -31.4202 48.9245 281° West  Level Estimated
Fri 07:46:00 PM -31.3983 48.7934 281° West  Level Estimated
Fri 07:47:00 PM -31.3762 48.6623 281° West  Level Estimated
Fri 07:48:00 PM -31.3540 48.5314 281° West  Level Estimated
Fri 07:49:00 PM -31.3317 48.4004 281° West  Level Estimated
Fri 07:50:00 PM -31.3093 48.2696 281° West  Level Estimated
Fri 07:51:00 PM -31.2867 48.1388 281° West  Level Estimated
Fri 07:52:00 PM -31.2640 48.0081 281° West  Level Estimated
Fri 07:53:00 PM -31.2411 47.8774 282° West  Level Estimated
Fri 07:54:00 PM -31.2182 47.7468 282° West  Level Estimated
Fri 07:55:00 PM -31.1950 47.6163 282° West  Level Estimated
Fri 07:56:00 PM -31.1718 47.4858 282° West  Level Estimated
Fri 07:57:00 PM -31.1484 47.3554 282° West  Level Estimated
Fri 07:58:00 PM -31.1249 47.2251 282° West  Level Estimated
Fri 07:59:00 PM -31.1013 47.0948 282° West  Level Estimated
Fri 08:00:00 PM -31.0776 46.9646 282° West  Level Estimated
Fri 08:01:00 PM -31.0537 46.8344 282° West  Level Estimated
Fri 08:02:00 PM -31.0296 46.7043 282° West  Level Estimated
Fri 08:03:00 PM -31.0055 46.5743 282° West  Level Estimated
Fri 08:04:00 PM -30.9812 46.4444 282° West  Level Estimated
Fri 08:05:00 PM -30.9568 46.3145 282° West  Level Estimated
Fri 08:06:00 PM -30.9322 46.1846 282° West  Level Estimated
Fri 08:07:00 PM -30.9067 46.0506 282° West  Level Estimated
Fri 08:08:00 PM -30.8811 45.9165 283° West  Level Estimated
Fri 08:09:00 PM -30.8553 45.7826 283° West  Level Estimated
Fri 08:10:00 PM -30.8294 45.6487 283° West  Level Estimated
Fri 08:11:00 PM -30.8033 45.5149 283° West  Level Estimated
Fri 08:12:00 PM -30.7771 45.3812 283° West  Level Estimated
Fri 08:13:00 PM -30.7508 45.2476 283° West  Level Estimated
Fri 08:14:00 PM -30.7243 45.1140 283° West  Level Estimated
Fri 08:15:00 PM -30.6977 44.9805 283° West  Level Estimated
Fri 08:16:00 PM -30.6710 44.8471 283° West  Level Estimated
Fri 08:17:00 PM -30.6441 44.7137 283° West  Level Estimated
Fri 08:18:00 PM -30.6171 44.5804 283° West  Level Estimated
Fri 08:19:00 PM -30.5900 44.4472 283° West  Level Estimated
Fri 08:20:00 PM -30.5627 44.3141 283° West  Level Estimated
Fri 08:21:00 PM -30.5353 44.1810 283° West  Level Estimated
Fri 08:22:00 PM -30.5077 44.0480 283° West  Level Estimated
Fri 08:23:00 PM -30.4800 43.9151 284° West  Level Estimated
Fri 08:24:00 PM -30.4522 43.7823 284° West  Level Estimated
Fri 08:25:00 PM -30.4242 43.6496 284° West  Level Estimated
Fri 08:26:00 PM -30.3962 43.5169 284° West  Level Estimated
Fri 08:27:00 PM -30.3679 43.3843 284° West  Level Estimated
Fri 08:28:00 PM -30.3396 43.2518 284° West  Level Estimated
Fri 08:29:00 PM -30.3111 43.1193 284° West  Level Estimated
Fri 08:30:00 PM -30.2825 42.9869 284° West  Level Estimated
Fri 08:31:00 PM -30.2537 42.8546 284° West  Level Estimated
Fri 08:32:00 PM -30.2248 42.7224 284° West  Level Estimated
Fri 08:33:00 PM -30.1958 42.5903 284° West  Level Estimated
Fri 08:34:00 PM -30.1666 42.4582 284° West  Level Estimated
Fri 08:35:00 PM -30.1374 42.3262 284° West  Level Estimated
Fri 08:36:00 PM -30.1079 42.1943 284° West  Level Estimated
Fri 08:37:00 PM -30.0784 42.0625 284° West  Level Estimated
Fri 08:38:00 PM -30.0487 41.9308 285° West  Level Estimated
Fri 08:39:00 PM -30.0189 41.7991 285° West  Level Estimated
Fri 08:40:00 PM -29.9889 41.6675 285° West  Level Estimated
Fri 08:41:00 PM -29.9589 41.5360 285° West  Level Estimated
Fri 08:42:00 PM -29.9286 41.4046 285° West  Level Estimated
Fri 08:43:00 PM -29.8983 41.2732 285° West  Level Estimated
Fri 08:44:00 PM -29.8678 41.1419 285° West  Level Estimated
Fri 08:45:00 PM -29.8372 41.0108 285° West  Level Estimated
Fri 08:46:00 PM -29.8065 40.8797 285° West  Level Estimated
Fri 08:47:00 PM -29.7757 40.7486 285° West  Level Estimated
Fri 08:48:00 PM -29.7447 40.6177 285° West  Level Estimated
Fri 08:49:00 PM -29.7136 40.4868 285° West  Level Estimated
Fri 08:50:00 PM -29.6823 40.3560 285° West  Level Estimated
Fri 08:51:00 PM -29.6509 40.2253 285° West  Level Estimated
Fri 08:52:00 PM -29.6194 40.0947 285° West  Level Estimated
Fri 08:53:00 PM -29.5878 39.9642 286° West  Level Estimated
Fri 08:54:00 PM -29.5561 39.8337 286° West  Level Estimated
Fri 08:55:00 PM -29.5242 39.7033 286° West  Level Estimated
Fri 08:56:00 PM -29.4922 39.5731 286° West  Level Estimated
Fri 08:57:00 PM -29.4600 39.4428 286° West  Level Estimated
Fri 08:58:00 PM -29.4278 39.3127 286° West  Level Estimated
Fri 08:59:00 PM -29.3954 39.1827 286° West  Level Estimated
Fri 09:00:00 PM -29.3629 39.0527 286° West  Level Estimated
Fri 09:01:00 PM -29.3302 38.9228 286° West  Level Estimated
Fri 09:02:00 PM -29.2975 38.7930 286° West  Level Estimated
Fri 09:03:00 PM -29.2646 38.6633 286° West  Level Estimated
Fri 09:04:00 PM -29.2316 38.5337 286° West  Level Estimated
Fri 09:05:00 PM -29.1984 38.4042 286° West  Level Estimated
Fri 09:06:00 PM -29.1651 38.2747 286° West  Level Estimated
Fri 09:07:00 PM -29.1318 38.1453 286° West  Level Estimated
Fri 09:08:00 PM -29.0982 38.0160 286° West  Level Estimated
Fri 09:09:00 PM -29.0646 37.8868 287° West  Level Estimated
Fri 09:10:00 PM -29.0308 37.7577 287° West  Level Estimated
Fri 09:11:00 PM -28.9970 37.6287 287° West  Level Estimated
Fri 09:11:12 PM -28.7080 36.0330 287° West 391 450 38,000  Level FlightAware ADS-B
Fri 09:12:00 PM -28.9629 37.4997 287° West  Level Estimated
Fri 09:12:02 PM -28.6870 35.9360 284° West 391 450 38,000  Level FlightAware ADS-B
Fri 09:12:42 PM -28.6720 35.8680 284° West 391 450 38,000  Level FlightAware ADS-B
Fri 09:13:32 PM -28.6530 35.7830 284° West 391 450 38,000  Level FlightAware ADS-B
Fri 09:14:07 PM -28.6270 35.6810 286° West 393 452 38,000  Level FlightAware ADS-B
Fri 09:14:57 PM -28.6040 35.5840 285° West 394 453 38,000  Level FlightAware ADS-B
Fri 09:15:57 PM -28.5790 35.4720 284° West 395 455 38,000  Level FlightAware ADS-B
Fri 09:17:12 PM -28.5410 35.3140 285° West 393 452 38,000  Level FlightAware ADS-B
Fri 09:18:02 PM -28.5170 35.2130 285° West 396 456 38,000  Level FlightAware ADS-B
Fri 09:19:32 PM -28.4910 35.0830 283° West 399 459 38,000  Level FlightAware ADS-B
Fri 09:20:32 PM -28.4560 34.9010 282° West 396 456 38,000  Level FlightAware ADS-B
Fri 09:21:17 PM -28.4410 34.8240 282° West 395 455 38,000  Level FlightAware ADS-B
Fri 09:21:57 PM -28.4230 34.7320 283° West 395 455 38,000  Level FlightAware ADS-B
Fri 09:22:42 PM -28.4070 34.6490 282° West 395 455 38,000  Level FlightAware ADS-B
Fri 09:23:12 PM -28.3930 34.5810 283° West 396 456 38,000  Level FlightAware ADS-B
Fri 09:24:07 PM -28.3740 34.4810 282° West 396 456 38,000  Level FlightAware ADS-B
Fri 09:24:47 PM -28.3610 34.4110 282° West 396 456 38,000  Level FlightAware ADS-B
Fri 09:25:27 PM -28.3480 34.3420 282° West 396 456 38,000  Level FlightAware ADS-B
Fri 09:26:12 PM -28.3210 34.2190 284° West 395 455 38,000  Level FlightAware ADS-B
Fri 09:26:52 PM -28.3050 34.1410 283° West 397 457 38,000  Level FlightAware ADS-B
Fri 09:27:37 PM -28.2860 34.0460 283° West 394 453 38,000  Level FlightAware ADS-B
Fri 09:28:17 PM -28.2690 33.9650 283° West 394 453 38,000  Level FlightAware ADS-B
Fri 09:28:57 PM -28.2530 33.8840 283° West 393 452 38,000  Level FlightAware ADS-B
Fri 09:29:42 PM -28.2340 33.7910 283° West 393 452 38,000  Level FlightAware ADS-B
Fri 09:30:22 PM -28.2180 33.7150 283° West 392 451 38,000  Level FlightAware ADS-B
Fri 09:30:57 PM -28.2040 33.6470 283° West 390 449 38,000  Level FlightAware ADS-B
Fri 09:31:42 PM -28.1850 33.5560 283° West 390 449 38,000  Level FlightAware ADS-B
Fri 09:32:27 PM -28.1690 33.4750 283° West 391 450 38,000  Level FlightAware ADS-B
Fri 09:33:12 PM -28.1470 33.3710 283° West 389 448 38,000  Level FlightAware ADS-B
Fri 09:33:52 PM -28.1330 33.3040 283° West 390 449 38,000  Level FlightAware ADS-B
Fri 09:34:37 PM -28.1130 33.2100 284° West 390 449 38,000  Level FlightAware ADS-B
Fri 09:35:17 PM -28.0970 33.1310 283° West 389 448 38,000  Level FlightAware ADS-B
Fri 09:35:57 PM -28.0800 33.0510 284° West 390 449 38,000  Level FlightAware ADS-B
Fri 09:36:42 PM -28.0620 32.9640 283° West 389 448 38,000  Level FlightAware ADS-B
Fri 09:37:22 PM -28.0430 32.8760 284° West 388 447 38,000  Level FlightAware ADS-B
Fri 09:38:02 PM -28.0260 32.7970 284° West 388 447 38,000  Level FlightAware ADS-B
Fri 09:38:47 PM -28.0100 32.7180 283° West 389 448 38,000  Level FlightAware ADS-B
Fri 09:39:27 PM -27.9920 32.6350 284° West 392 451 38,000  Level FlightAware ADS-B
Fri 09:40:27 PM -27.9660 32.5140 284° West 394 453 38,000  Level FlightAware ADS-B
Fri 09:41:07 PM -27.9480 32.4320 284° West 394 453 38,000  Level FlightAware ADS-B
Fri 09:41:37 PM -27.9360 32.3760 284° West 394 453 38,000  Level FlightAware ADS-B
Fri 09:42:47 PM -27.9060 32.2360 284° West 394 453 38,000  Level FlightAware ADS-B
Fri 09:43:42 PM -27.8820 32.1280 284° West 396 456 38,000  Level FlightAware ADS-B
Fri 09:44:17 PM -27.8650 32.0500 284° West 396 456 38,000  Level FlightAware ADS-B
Fri 09:45:07 PM -27.8430 31.9520 284° West 395 455 38,000  Level FlightAware ADS-B
Fri 09:45:47 PM -27.8270 31.8760 283° West 395 455 38,000  Level FlightAware ADS-B
Fri 09:46:27 PM -27.8090 31.7940 284° West 394 453 38,000  Level FlightAware ADS-B
Fri 09:47:12 PM -27.7810 31.7070 290° West 389 448 38,000  Level FlightAware ADS-B
Fri 09:47:52 PM -27.7480 31.6370 298° West 383 441 38,000  Level FlightAware ADS-B
Fri 09:48:32 PM -27.7110 31.5690 302° West 382 440 38,000  Level FlightAware ADS-B
Fri 09:49:17 PM -27.6680 31.4900 302° West 383 441 38,000  Level FlightAware ADS-B
Fri 09:49:57 PM -27.6320 31.4240 302° West 383 441 38,000  Level FlightAware ADS-B
Fri 09:50:32 PM -27.5980 31.3630 302° West 382 440 38,000  Level FlightAware ADS-B
Fri 09:51:22 PM -27.5520 31.2780 301° West 382 440 38,000  Level FlightAware ADS-B
Fri 09:52:02 PM -27.5150 31.2110 302° West 381 438 38,000  Level FlightAware ADS-B
Fri 09:52:47 PM -27.4740 31.1360 302° West 383 441 38,000  Level FlightAware ADS-B
Fri 09:53:27 PM -27.4360 31.0670 302° West 383 441 38,000  Level FlightAware ADS-B
Fri 09:54:12 PM -27.3940 30.9920 302° West 385 443 38,000  Level FlightAware ADS-B
Fri 09:54:52 PM -27.3570 30.9230 301° West 384 442 38,000  Level FlightAware ADS-B
Fri 09:55:32 PM -27.3200 30.8570 302° West 383 441 38,000  Level FlightAware ADS-B
Fri 09:56:17 PM -27.2800 30.7850 302° West 382 440 38,000  Level FlightAware ADS-B
Fri 09:56:57 PM -27.2400 30.7130 302° West 382 440 38,000  Level FlightAware ADS-B
Fri 09:57:42 PM -27.2080 30.6550 302° West 380 437 38,000  Level FlightAware ADS-B
Fri 09:58:22 PM -27.1720 30.5900 302° West 379 436 38,000  Level FlightAware ADS-B
Fri 09:59:02 PM -27.1360 30.5250 302° West 379 436 38,000  Level FlightAware ADS-B
Fri 09:59:47 PM -27.0900 30.4430 302° West 376 433 38,000  Level FlightAware ADS-B
Fri 10:00:27 PM -27.0590 30.3870 302° West 377 434 38,000  Level FlightAware ADS-B
Fri 10:01:07 PM -27.0160 30.3110 302° West 377 434 38,000  Level FlightAware ADS-B
Fri 10:01:52 PM -26.9790 30.2440 302° West 372 428 38,000  Level FlightAware ADS-B
Fri 10:02:32 PM -26.9380 30.1720 303° West 368 423 38,000  Level FlightAware ADS-B
Fri 10:03:17 PM -26.9000 30.1040 302° West 365 420 38,000  Level FlightAware ADS-B
Fri 10:03:57 PM -26.8600 30.0340 303° West 366 421 38,000  Level FlightAware ADS-B
Fri 10:04:42 PM -26.8220 29.9650 302° West 366 421 38,000  Level FlightAware ADS-B
Fri 10:05:22 PM -26.7850 29.9000 303° West 364 419 38,000 -675 Level FlightAware ADS-B
Fri 10:06:02 PM -26.7490 29.8370 303° West 367 422 37,100 -1,765 Descending FlightAware ADS-B
Fri 10:06:47 PM -26.7090 29.7660 302° West 362 417 35,500 -2,118 Descending FlightAware ADS-B
Fri 10:07:27 PM -26.6740 29.7030 302° West 356 410 34,100 -2,047 Descending FlightAware ADS-B
Fri 10:08:12 PM -26.6350 29.6350 303° West 352 405 32,600 -2,118 Descending FlightAware ADS-B
Fri 10:08:52 PM -26.5980 29.5700 302° West 353 406 31,100 -2,100 Descending FlightAware ADS-B
Fri 10:09:32 PM -26.5640 29.5110 303° West 355 409 29,800 -1,976 Descending FlightAware ADS-B
Fri 10:10:17 PM -26.5240 29.4410 303° West 357 411 28,300 -2,047 Descending FlightAware ADS-B
Fri 10:10:57 PM -26.4890 29.3790 302° West 358 412 26,900 -2,047 Descending FlightAware ADS-B
Fri 10:11:42 PM -26.4490 29.3100 303° West 357 411 25,400 -2,047 Descending FlightAware ADS-B
Fri 10:12:22 PM -26.4130 29.2470 303° West 354 407 24,000 -2,047 Descending FlightAware ADS-B
Fri 10:13:07 PM -26.3740 29.1780 302° West 353 406 22,500 -2,118 Descending FlightAware ADS-B
Fri 10:13:47 PM -26.3370 29.1150 303° West 353 406 21,000 -1,950 Descending FlightAware ADS-B
Fri 10:14:27 PM -26.3050 29.0580 302° West 351 404 19,900 -1,765 Descending FlightAware ADS-B
Fri 10:15:12 PM -26.2630 28.9870 303° West 347 399 18,500 -1,553 Descending FlightAware ADS-B
Fri 10:15:52 PM -26.2370 28.9250 295° West 340 391 17,700 -1,725 Descending FlightAware ADS-B
Fri 10:16:32 PM -26.2160 28.8530 288° West 346 398 16,200 -1,694 Descending FlightAware ADS-B
Fri 10:17:17 PM -26.1940 28.7790 288° West 333 383 15,300 -1,341 Descending FlightAware ADS-B
Fri 10:17:57 PM -26.1680 28.7190 296° West 345 397 14,300 -1,425 Descending FlightAware ADS-B
Fri 10:18:37 PM -26.1270 28.6660 311° West 335 386 13,400 -1,482 Descending FlightAware ADS-B
Fri 10:19:22 PM -26.0890 28.6020 303° West 334 384 12,200 -2,188 Descending FlightAware ADS-B
Fri 10:20:02 PM -26.0580 28.5400 299° West 357 411 10,300 -2,314 Descending FlightAware ADS-B
Fri 10:20:32 PM -26.0340 28.4920 299° West 325 374 9,500 -1,333 Descending FlightAware ADS-B
Fri 10:20:47 PM -26.0230 28.4720 301° West 304 350 9,300 -1,350 Descending FlightAware ADS-B
Fri 10:21:12 PM -26.0060 28.4400 301° West 279 321 8,600 -1,527 Descending FlightAware ADS-B
Fri 10:21:42 PM -25.9870 28.4060 302° West 267 307 7,900 -800 Descending FlightAware ADS-B
Fri 10:22:12 PM -25.9670 28.3730 304° West 242 278 7,800 -109 Descending FlightAware ADS-B
Fri 10:22:37 PM -25.9560 28.3450 294° West 210 242 7,800  Level FlightAware ADS-B
Fri 10:23:07 PM -25.9610 28.3150 259° West 203 234 7,800  Level FlightAware ADS-B
Fri 10:23:22 PM -25.9670 28.2990 247° West 186 214 7,800  Level FlightAware ADS-B
Fri 10:23:47 PM -25.9810 28.2860 220° Southwest 174 200 7,800 -327 Level FlightAware ADS-B
Fri 10:24:17 PM -26.0020 28.2790 197° South 173 199 7,500 -764 Descending FlightAware ADS-B
Fri 10:24:42 PM -26.0230 28.2720 197° South 163 188 7,100 -873 Descending FlightAware ADS-B
Fri 10:25:12 PM -26.0430 28.2660 195° South 142 163 6,700 -800 Descending FlightAware ADS-B
Fri 10:25:42 PM -26.0610 28.2610 194° South 129 148 6,300 -720 Descending FlightAware ADS-B
Fri 10:26:02 PM -26.0730 28.2570 197° South 132 152 6,100 -655 Descending FlightAware ADS-B
Fri 10:26:37 PM -26.0920 28.2510 196° South 131 151 5,700 -700 Descending FlightAware ADS-B
Fri 10:27:02 PM -26.1080 28.2460 196° South 134 154 5,400 -436 Descending FlightAware ADS-B
Fri 10:27:32 PM -26.1220 28.2420 194° South 111 128 5,300 -109 Descending FlightAware ADS-B
Fri 10:27:57 PM -26.1300 28.2390 199° South 41 47 5,300  Level FlightAware ADS-B
Fri 10:28:27 PM -26.1320 28.2380 204° Southwest 8 9 5,300  Level FlightAware ADS-B
Fri 10:28:57 PM -26.1310 28.2370 318° Northwest 7 8 5,300  Level FlightAware ADS-B
Fri 10:29:37 PM -26.1300 28.2380 42° Northeast 14 16 5,300  Level FlightAware ADS-B
Fri 10:30:07 PM -26.1280 28.2370 336° Northwest 11 13 5,300  Level FlightAware ADS-B
Fri 10:30:32 PM -26.1280 28.2360 270° West 9 10 5,300  Level FlightAware ADS-B
Fri 10:31:17 PM -26.1290 28.2360 180° South 4 5 5,300  Level FlightAware ADS-B
Fri 10:33:00 PM -26.1392 28.2460 139° Southeast  Level Estimated
Fri 10:34:00 PM -26.1392 28.2460 North  Level Estimated
Fri 10:35:00 PM -26.1392 28.2460 North  Level Estimated
Fri 10:36:00 PM -26.1392 28.2460 North  Level Estimated
Fri 10:37:00 PM -26.1392 28.2460 North  Level Estimated
Fri 10:38:00 PM -26.1392 28.2460 North  Level Estimated
Fri 10:39:00 PM -26.1392 28.2460 North  Level Estimated
Fri 10:40:00 PM -26.1392 28.2460 North  Level Estimated

Login

Don't have an account? Register now (free) for customized features, flight alerts, and more!